createdAt,value
2019-03-17T00:03:56.634Z,8.40
2019-03-17T00:09:01.886Z,8.50
2019-03-17T00:14:07.885Z,8.50
2019-03-17T00:19:13.332Z,8.50
2019-03-17T00:24:18.908Z,8.50
2019-03-17T00:29:24.481Z,8.50
2019-03-17T00:34:30.264Z,8.50
2019-03-17T00:39:36.052Z,8.50
2019-03-17T00:44:41.514Z,8.50
2019-03-17T00:49:46.970Z,8.50
2019-03-17T00:54:52.478Z,8.50
2019-03-17T00:59:57.970Z,8.40
2019-03-17T01:05:03.458Z,8.40
2019-03-17T01:10:09.122Z,8.40
2019-03-17T01:15:14.922Z,8.40
2019-03-17T01:20:20.439Z,8.50
2019-03-17T01:25:26.090Z,8.40
2019-03-17T01:30:31.507Z,8.40
2019-03-17T01:35:36.939Z,8.40
2019-03-17T01:40:42.368Z,8.40
2019-03-17T01:45:47.812Z,8.40
2019-03-17T01:50:53.416Z,8.40
2019-03-17T01:55:58.803Z,8.40
2019-03-17T02:01:04.623Z,8.40
2019-03-17T02:06:10.218Z,8.50
2019-03-17T02:11:15.665Z,8.60
2019-03-17T02:16:21.204Z,8.50
2019-03-17T02:21:27.063Z,8.50
2019-03-17T02:26:33.066Z,8.60
2019-03-17T02:31:38.950Z,8.60
2019-03-17T02:36:44.397Z,8.60
2019-03-17T02:41:49.894Z,8.50
2019-03-17T02:46:55.333Z,8.50
2019-03-17T02:52:00.804Z,8.50
2019-03-17T02:57:07.083Z,8.50
2019-03-17T03:02:12.542Z,8.50
2019-03-17T03:07:18.000Z,8.50
2019-03-17T03:12:23.515Z,8.50
2019-03-17T03:17:29.035Z,8.40
2019-03-17T03:22:34.495Z,8.40
2019-03-17T03:27:40.290Z,8.40
2019-03-17T03:32:46.117Z,8.30
2019-03-17T03:37:51.596Z,8.30
2019-03-17T03:42:57.007Z,8.30
2019-03-17T03:48:02.458Z,8.30
2019-03-17T03:53:07.927Z,8.40
2019-03-17T03:58:13.713Z,8.30
2019-03-17T04:03:19.160Z,8.30
2019-03-17T04:08:24.581Z,8.20
2019-03-17T04:13:30.445Z,8.20
2019-03-17T04:18:36.202Z,8.10
2019-03-17T04:23:41.996Z,8.10
2019-03-17T04:28:47.439Z,8.10
2019-03-17T04:33:52.894Z,8.20
2019-03-17T04:38:58.327Z,8.20
2019-03-17T04:44:03.756Z,8.20
2019-03-17T04:49:09.270Z,8.30
2019-03-17T04:54:14.779Z,8.30
2019-03-17T04:59:20.538Z,8.40
2019-03-17T05:04:25.956Z,8.40
2019-03-17T05:09:31.377Z,8.60
2019-03-17T05:14:37.175Z,8.60
2019-03-17T05:19:43.043Z,8.60
2019-03-17T05:24:48.461Z,8.50
2019-03-17T05:29:54.264Z,8.50
2019-03-17T05:34:59.715Z,8.40
2019-03-17T05:40:05.530Z,8.20
2019-03-17T05:45:11.102Z,8.20
2019-03-17T05:50:16.635Z,8.10
2019-03-17T05:55:22.227Z,8.10
2019-03-17T06:00:27.669Z,8.10
2019-03-17T06:05:33.187Z,8.20
2019-03-17T06:10:38.630Z,8.20
2019-03-17T06:15:44.042Z,8.20
2019-03-17T06:20:49.463Z,8.20
2019-03-17T06:25:54.912Z,8.30
2019-03-17T06:31:01.031Z,8.30
2019-03-17T06:36:07.258Z,8.30
2019-03-17T06:41:12.767Z,8.40
2019-03-17T06:46:18.566Z,8.40
2019-03-17T06:51:24.020Z,8.50
2019-03-17T06:56:29.459Z,8.60
2019-03-17T07:01:35.257Z,8.70
2019-03-17T07:06:40.738Z,8.80
2019-03-17T07:11:46.222Z,8.90
2019-03-17T07:16:51.632Z,9.00
2019-03-17T07:21:57.067Z,9.10
2019-03-17T07:27:02.566Z,9.10
2019-03-17T07:32:08.039Z,9.40
2019-03-17T07:37:13.854Z,9.50
2019-03-17T07:42:19.318Z,9.50
2019-03-17T07:47:24.879Z,9.60
2019-03-17T07:52:30.419Z,9.70
2019-03-17T07:57:35.807Z,9.80
2019-03-17T08:02:41.250Z,9.80
2019-03-17T08:07:46.810Z,9.60
2019-03-17T08:12:52.249Z,9.80
2019-03-17T08:17:57.709Z,10.00
2019-03-17T08:23:03.218Z,10.20
2019-03-17T08:28:08.806Z,10.40
2019-03-17T08:33:14.823Z,10.40
2019-03-17T08:38:22.096Z,10.50
2019-03-17T08:43:26.342Z,10.70
2019-03-17T08:48:31.794Z,10.70
2019-03-17T08:53:37.339Z,10.90
2019-03-17T08:58:42.818Z,10.90
2019-03-17T09:03:48.323Z,11.10
2019-03-17T09:08:53.774Z,11.10
2019-03-17T09:13:59.242Z,11.30
2019-03-17T09:19:05.153Z,11.50
2019-03-17T09:24:17.005Z,11.60
2019-03-17T09:29:16.158Z,11.70
2019-03-17T09:34:21.690Z,11.90
2019-03-17T09:39:27.119Z,12.10
2019-03-17T09:44:32.880Z,11.90
2019-03-17T09:49:38.690Z,12.00
2019-03-17T09:54:44.157Z,12.10
2019-03-17T09:59:49.590Z,12.40
2019-03-17T10:04:55.404Z,12.60
2019-03-17T10:10:00.842Z,12.70
2019-03-17T10:15:08.067Z,13.00
2019-03-17T10:20:15.167Z,13.10
2019-03-17T10:25:20.627Z,12.90
2019-03-17T10:30:26.471Z,12.60
2019-03-17T10:35:31.903Z,12.60
2019-03-17T10:40:37.696Z,12.30
2019-03-17T10:45:44.167Z,12.40
2019-03-17T10:50:50.098Z,12.50
2019-03-17T10:55:55.109Z,12.30
2019-03-17T11:01:00.651Z,12.30
2019-03-17T11:06:06.888Z,12.40
2019-03-17T11:11:12.422Z,12.60
2019-03-17T11:16:18.363Z,12.80
2019-03-17T11:21:23.811Z,13.40
2019-03-17T11:26:29.775Z,13.30
2019-03-17T11:31:35.200Z,12.90
2019-03-17T11:36:40.939Z,12.60
2019-03-17T11:41:46.479Z,12.70
2019-03-17T11:46:51.923Z,12.50
2019-03-17T11:51:57.719Z,12.60
2019-03-17T11:57:03.869Z,12.50
2019-03-17T12:02:09.489Z,12.30
2019-03-17T12:07:14.967Z,12.20
2019-03-17T12:12:20.780Z,12.20
2019-03-17T12:17:26.249Z,12.20
2019-03-17T12:22:32.395Z,12.20
2019-03-17T12:27:38.008Z,12.20
2019-03-17T12:32:43.430Z,12.40
2019-03-17T12:37:48.893Z,12.30
2019-03-17T12:42:54.345Z,12.30
2019-03-17T12:47:59.810Z,12.10
2019-03-17T12:53:07.711Z,12.00
2019-03-17T12:58:11.110Z,12.00
2019-03-17T13:03:16.942Z,12.00
2019-03-17T13:08:22.390Z,12.00
2019-03-17T13:13:30.097Z,12.00
2019-03-17T13:18:35.699Z,12.00
2019-03-17T13:23:41.257Z,12.00
2019-03-17T13:28:46.768Z,11.90
2019-03-17T13:33:52.254Z,11.70
2019-03-17T13:38:57.856Z,9.40
2019-03-17T13:44:03.861Z,8.30
2019-03-17T13:49:09.450Z,8.20
2019-03-17T13:54:14.883Z,7.90
2019-03-17T13:59:20.343Z,7.60
2019-03-17T14:04:25.855Z,7.50
2019-03-17T14:09:31.423Z,7.40
2019-03-17T14:14:37.014Z,7.40
2019-03-17T14:19:42.544Z,7.40
2019-03-17T14:24:48.115Z,7.60
2019-03-17T14:29:53.636Z,7.40
2019-03-17T14:34:59.098Z,7.50
2019-03-17T14:40:06.074Z,7.50
2019-03-17T14:45:13.507Z,7.60
2019-03-17T14:50:19.190Z,7.60
2019-03-17T14:55:24.704Z,7.60
2019-03-17T15:00:30.578Z,7.60
2019-03-17T15:05:36.405Z,7.60
2019-03-17T15:10:42.321Z,7.50
2019-03-17T15:15:48.132Z,7.50
2019-03-17T15:20:54.362Z,7.60
2019-03-17T15:25:59.868Z,7.50
2019-03-17T15:31:11.731Z,7.60
2019-03-17T15:36:12.143Z,7.60
2019-03-17T15:41:19.010Z,7.50
2019-03-17T15:46:24.296Z,7.60
2019-03-17T15:51:29.839Z,7.60
2019-03-17T15:56:35.487Z,7.60
2019-03-17T16:01:41.382Z,7.70
2019-03-17T16:06:47.243Z,7.60
2019-03-17T16:11:52.767Z,7.60
2019-03-17T16:16:58.231Z,7.60
2019-03-17T16:22:03.752Z,7.60
2019-03-17T16:27:09.266Z,7.60
2019-03-17T16:32:15.156Z,7.50
2019-03-17T16:37:20.677Z,7.40
2019-03-17T16:42:26.177Z,7.40
2019-03-17T16:47:31.695Z,7.30
2019-03-17T16:52:37.151Z,7.40
2019-03-17T16:57:42.690Z,7.30
2019-03-17T17:02:48.213Z,7.20
2019-03-17T17:07:53.754Z,7.20
2019-03-17T17:12:59.578Z,7.20
2019-03-17T17:18:05.515Z,7.20
2019-03-17T17:23:11.420Z,7.20
2019-03-17T17:28:16.947Z,7.20
2019-03-17T17:33:22.375Z,7.20
2019-03-17T17:38:27.967Z,7.20
2019-03-17T17:43:33.518Z,7.20
2019-03-17T17:48:38.957Z,7.20
2019-03-17T17:53:44.394Z,7.10
2019-03-17T17:58:49.822Z,7.10
2019-03-17T18:03:55.335Z,7.20
2019-03-17T18:09:00.918Z,7.70
2019-03-17T18:14:06.700Z,7.70
2019-03-17T18:19:12.132Z,7.70
2019-03-17T18:24:17.588Z,7.20
2019-03-17T18:29:23.033Z,7.10
2019-03-17T18:34:28.818Z,7.10
2019-03-17T18:39:34.273Z,7.00
2019-03-17T18:44:39.732Z,7.00
2019-03-17T18:49:45.154Z,6.80
2019-03-17T18:54:50.583Z,6.70
2019-03-17T18:59:56.014Z,6.70
2019-03-17T19:05:01.491Z,6.60
2019-03-17T19:10:07.886Z,6.50
2019-03-17T19:15:14.671Z,6.40
2019-03-17T19:20:20.558Z,6.30
2019-03-17T19:25:26.014Z,6.20
2019-03-17T19:30:31.895Z,6.20
2019-03-17T19:35:37.656Z,6.10
2019-03-17T19:40:43.088Z,6.10
2019-03-17T19:45:48.602Z,6.10
2019-03-17T19:50:54.095Z,6.00
2019-03-17T19:55:59.904Z,6.00
2019-03-17T20:01:05.998Z,6.00
2019-03-17T20:06:11.744Z,5.90
2019-03-17T20:11:17.299Z,5.90
2019-03-17T20:16:22.707Z,5.80
2019-03-17T20:21:28.152Z,5.80
2019-03-17T20:26:33.626Z,5.80
2019-03-17T20:31:39.390Z,5.70
2019-03-17T20:36:44.903Z,5.60
2019-03-17T20:41:50.310Z,5.50
2019-03-17T20:46:55.794Z,5.40
2019-03-17T20:52:01.206Z,5.30
2019-03-17T20:57:06.991Z,5.30
2019-03-17T21:02:12.507Z,5.20
2019-03-17T21:07:18.613Z,5.10
2019-03-17T21:12:24.399Z,5.00
2019-03-17T21:17:29.814Z,4.80
2019-03-17T21:22:35.316Z,4.80
2019-03-17T21:27:41.116Z,4.80
2019-03-17T21:32:46.625Z,4.80
2019-03-17T21:37:52.051Z,4.80
2019-03-17T21:42:57.538Z,4.90
2019-03-17T21:48:03.063Z,4.70
2019-03-17T21:53:08.510Z,4.60
2019-03-17T21:58:13.936Z,4.70
2019-03-17T22:03:19.856Z,4.70
2019-03-17T22:08:25.295Z,4.60
2019-03-17T22:13:30.740Z,4.60
2019-03-17T22:18:38.796Z,4.60
2019-03-17T22:23:44.228Z,4.40
2019-03-17T22:28:50.006Z,4.40
2019-03-17T22:33:55.435Z,4.50
2019-03-17T22:39:00.867Z,4.40
2019-03-17T22:44:06.998Z,4.30
2019-03-17T22:49:14.170Z,4.30
2019-03-17T22:54:19.757Z,4.30
2019-03-17T22:59:25.167Z,4.30
2019-03-17T23:04:30.922Z,4.30
2019-03-17T23:09:36.415Z,4.30
2019-03-17T23:14:41.856Z,4.30
2019-03-17T23:19:47.278Z,4.20
2019-03-17T23:24:52.707Z,4.10
2019-03-17T23:29:58.258Z,4.10
2019-03-17T23:35:03.691Z,3.90
2019-03-17T23:40:09.859Z,4.00
2019-03-17T23:45:15.125Z,3.90
2019-03-17T23:50:21.212Z,3.90
2019-03-17T23:55:26.623Z,3.90
